createdAt,value
2022-11-24T00:02:52.326Z,95.16
2022-11-24T00:07:53.974Z,95.09
2022-11-24T00:12:55.547Z,95.27
2022-11-24T00:17:57.081Z,95.25
2022-11-24T00:22:58.615Z,95.41
2022-11-24T00:28:00.086Z,95.50
2022-11-24T00:33:01.692Z,95.48
2022-11-24T00:38:03.132Z,95.62
2022-11-24T00:43:04.596Z,95.62
2022-11-24T00:48:06.182Z,95.63
2022-11-24T00:53:07.749Z,95.71
2022-11-24T00:58:09.203Z,95.94
2022-11-24T01:03:12.171Z,96.12
2022-11-24T01:08:13.693Z,96.09
2022-11-24T01:13:15.309Z,95.96
2022-11-24T01:18:16.806Z,96.58
2022-11-24T01:23:18.287Z,96.33
2022-11-24T01:28:19.805Z,96.33
2022-11-24T01:33:21.310Z,96.22
2022-11-24T01:38:22.852Z,96.57
2022-11-24T01:43:24.336Z,96.37
2022-11-24T01:48:41.036Z,96.36
2022-11-24T01:53:45.600Z,96.54
2022-11-24T01:58:48.994Z,96.48
2022-11-24T02:03:51.905Z,96.56
2022-11-24T02:09:00.588Z,96.56
2022-11-24T02:14:04.016Z,96.59
2022-11-24T02:19:17.215Z,96.66
2022-11-24T02:24:37.595Z,96.66
2022-11-24T02:29:40.726Z,96.63
2022-11-24T02:34:42.202Z,96.65
2022-11-24T02:39:43.684Z,96.62
2022-11-24T02:45:02.124Z,96.85
2022-11-24T02:50:09.817Z,96.92
2022-11-24T02:55:11.271Z,96.89
2022-11-24T03:00:13.167Z,97.15
2022-11-24T03:05:14.933Z,97.15
2022-11-24T03:10:16.787Z,97.04
2022-11-24T03:15:18.350Z,97.16
2022-11-24T03:20:19.799Z,97.43
2022-11-24T03:25:21.272Z,97.41
2022-11-24T03:30:22.737Z,97.57
2022-11-24T03:35:24.254Z,97.71
2022-11-24T03:40:25.746Z,97.43
2022-11-24T03:45:45.345Z,97.56
2022-11-24T03:50:56.107Z,97.41
2022-11-24T03:55:58.194Z,97.68
2022-11-24T04:00:59.748Z,97.77
2022-11-24T04:06:01.961Z,97.51
2022-11-24T04:11:03.561Z,97.74
2022-11-24T04:16:06.099Z,97.87
2022-11-24T04:21:07.581Z,98.05
2022-11-24T04:26:09.027Z,97.91
2022-11-24T04:31:10.654Z,97.98
2022-11-24T04:36:12.190Z,98.11
2022-11-24T04:41:13.632Z,98.13
2022-11-24T04:46:15.144Z,98.20
2022-11-24T04:51:16.793Z,98.30
2022-11-24T04:56:18.295Z,98.56
2022-11-24T05:01:19.824Z,98.56
2022-11-24T05:06:22.101Z,98.67
2022-11-24T05:11:23.578Z,98.98
2022-11-24T05:16:25.128Z,99.02
2022-11-24T05:21:27.652Z,98.99
2022-11-24T05:26:29.116Z,99.13
2022-11-24T05:31:30.884Z,99.08
2022-11-24T05:36:50.563Z,99.30
2022-11-24T05:41:52.199Z,99.36
2022-11-24T05:46:53.778Z,99.43
2022-11-24T05:51:55.293Z,99.22
2022-11-24T05:56:56.733Z,99.58
2022-11-24T06:01:58.494Z,99.51
2022-11-24T06:07:01.551Z,99.40
2022-11-24T06:12:03.468Z,99.21
2022-11-24T06:17:06.719Z,99.36
2022-11-24T06:22:08.195Z,99.38
2022-11-24T06:27:09.677Z,99.26
2022-11-24T06:32:11.178Z,99.05
2022-11-24T06:37:12.667Z,99.06
2022-11-24T06:42:18.494Z,99.05
2022-11-24T06:47:19.991Z,99.21
2022-11-24T06:52:21.445Z,99.08
2022-11-24T06:57:22.940Z,99.05
2022-11-24T07:02:24.488Z,99.05
2022-11-24T07:07:26.171Z,99.18
2022-11-24T07:12:29.127Z,99.27
2022-11-24T07:17:30.673Z,99.27
2022-11-24T07:22:32.490Z,99.08
2022-11-24T07:27:34.137Z,99.22
2022-11-24T07:32:35.646Z,99.05
2022-11-24T07:37:37.092Z,99.07
2022-11-24T07:42:38.536Z,99.04
2022-11-24T07:47:40.820Z,99.06
2022-11-24T07:52:42.299Z,98.80
2022-11-24T07:57:43.975Z,98.95
2022-11-24T08:02:45.626Z,98.91
2022-11-24T08:07:47.137Z,98.86
2022-11-24T08:12:48.635Z,99.01
2022-11-24T08:17:50.124Z,98.76
2022-11-24T08:22:51.559Z,98.84
2022-11-24T08:27:53.085Z,98.96
2022-11-24T08:32:54.616Z,98.63
2022-11-24T08:37:59.200Z,98.86
2022-11-24T08:43:04.705Z,98.59
2022-11-24T08:48:06.251Z,98.47
2022-11-24T08:53:07.681Z,98.50
2022-11-24T08:58:09.195Z,98.37
2022-11-24T09:03:12.079Z,98.25
2022-11-24T09:08:13.548Z,98.28
2022-11-24T09:13:14.974Z,98.19
2022-11-24T09:18:16.471Z,98.06
2022-11-24T09:23:18.006Z,98.06
2022-11-24T09:28:19.477Z,97.76
2022-11-24T09:33:20.927Z,97.66
2022-11-24T09:38:22.973Z,100.00
2022-11-24T09:43:40.841Z,100.00
2022-11-24T09:48:47.362Z,100.00
2022-11-24T09:54:01.230Z,100.00
2022-11-24T09:59:14.544Z,100.00
2022-11-24T10:04:32.625Z,100.00
2022-11-24T10:09:44.526Z,100.00
2022-11-24T10:15:04.638Z,100.00
2022-11-24T10:20:10.986Z,100.00
2022-11-24T10:25:26.171Z,100.00
2022-11-24T10:30:27.785Z,100.00
2022-11-24T10:35:38.169Z,100.00
2022-11-24T10:41:01.745Z,100.00
2022-11-24T10:46:19.573Z,100.00
2022-11-24T10:51:37.277Z,97.66
2022-11-24T10:56:43.051Z,89.48
2022-11-24T11:01:44.770Z,88.66
2022-11-24T11:06:46.335Z,88.33
2022-11-24T11:11:49.083Z,88.04
2022-11-24T11:16:56.506Z,87.67
2022-11-24T11:22:03.886Z,87.43
2022-11-24T11:27:17.830Z,86.81
2022-11-24T11:37:50.985Z,86.85
2022-11-24T11:43:12.665Z,86.82
2022-11-24T11:48:43.645Z,87.30
2022-11-24T11:54:18.377Z,87.55
2022-11-24T11:59:46.269Z,87.00
2022-11-24T12:05:00.167Z,86.58
2022-11-24T12:10:21.767Z,85.85
2022-11-24T12:15:26.037Z,85.67
2022-11-24T12:20:55.177Z,85.72
2022-11-24T12:26:09.423Z,85.80
2022-11-24T12:31:28.483Z,85.97
2022-11-24T12:36:56.020Z,86.06
2022-11-24T12:42:15.984Z,85.71
2022-11-24T12:47:28.754Z,85.83
2022-11-24T12:52:37.373Z,85.67
2022-11-24T12:57:55.734Z,85.65
2022-11-24T13:03:19.324Z,85.82
2022-11-24T13:08:21.826Z,85.82
2022-11-24T13:13:29.435Z,85.72
2022-11-24T13:18:53.447Z,85.93
2022-11-24T13:24:00.667Z,85.86
2022-11-24T13:29:13.325Z,85.92
2022-11-24T13:34:41.154Z,86.07
2022-11-24T13:40:07.866Z,85.72
2022-11-24T13:45:50.643Z,86.21
2022-11-24T13:50:54.804Z,86.34
2022-11-24T13:56:00.153Z,86.70
2022-11-24T14:01:15.093Z,100.00
2022-11-24T14:06:28.073Z,86.70
2022-11-24T14:11:29.642Z,87.01
2022-11-24T14:16:31.153Z,87.15
2022-11-24T14:21:44.539Z,87.40
2022-11-24T14:26:46.965Z,87.35
2022-11-24T14:31:59.553Z,87.90
2022-11-24T14:37:01.782Z,88.10
2022-11-24T14:42:20.214Z,88.22
2022-11-24T14:47:38.391Z,88.65
2022-11-24T14:52:53.516Z,88.76
2022-11-24T14:57:55.369Z,89.17
2022-11-24T15:03:02.760Z,89.18
2022-11-24T15:08:04.474Z,89.45
2022-11-24T15:13:16.964Z,89.57
2022-11-24T15:18:33.282Z,89.90
2022-11-24T15:23:36.054Z,90.08
2022-11-24T15:28:38.364Z,90.43
2022-11-24T15:33:41.033Z,90.61
2022-11-24T15:38:42.816Z,90.82
2022-11-24T15:43:44.376Z,91.01
2022-11-24T15:48:46.089Z,91.09
2022-11-24T15:53:58.708Z,91.67
2022-11-24T15:59:04.052Z,91.94
2022-11-24T16:04:05.558Z,92.41
2022-11-24T16:09:12.431Z,92.84
2022-11-24T16:14:14.053Z,93.04
2022-11-24T16:19:15.827Z,93.39
2022-11-24T16:24:17.532Z,93.61
2022-11-24T16:29:20.821Z,93.44
2022-11-24T16:34:22.301Z,93.68
2022-11-24T16:39:23.778Z,93.57
2022-11-24T16:44:25.290Z,93.96
2022-11-24T16:49:26.745Z,94.09
2022-11-24T16:54:28.200Z,94.00
2022-11-24T16:59:29.647Z,93.76
2022-11-24T17:04:31.197Z,93.84
2022-11-24T17:09:37.393Z,93.74
2022-11-24T17:14:41.702Z,94.02
2022-11-24T17:19:43.747Z,93.99
2022-11-24T17:24:45.486Z,93.85
2022-11-24T17:29:46.966Z,94.20
2022-11-24T17:34:48.575Z,94.12
2022-11-24T17:40:12.519Z,94.15
2022-11-24T17:45:11.547Z,94.34
2022-11-24T17:50:13.039Z,94.36
2022-11-24T17:55:14.579Z,94.54
2022-11-24T18:00:16.390Z,94.67
2022-11-24T18:05:17.957Z,94.93
2022-11-24T18:10:19.796Z,94.87
2022-11-24T18:15:21.344Z,94.89
2022-11-24T18:20:22.853Z,95.17
2022-11-24T18:25:24.518Z,95.21
2022-11-24T18:30:26.003Z,95.49
2022-11-24T18:35:27.613Z,95.62
2022-11-24T18:40:29.082Z,95.68
2022-11-24T18:45:30.598Z,95.81
2022-11-24T18:50:33.121Z,96.00
2022-11-24T18:55:34.592Z,96.17
2022-11-24T19:00:36.430Z,96.07
2022-11-24T19:05:37.947Z,96.34
2022-11-24T19:10:39.703Z,96.45
2022-11-24T19:15:41.264Z,96.76
2022-11-24T19:20:42.714Z,96.71
2022-11-24T19:25:44.915Z,96.93
2022-11-24T19:30:46.424Z,97.22
2022-11-24T19:35:47.974Z,97.24
2022-11-24T19:40:49.414Z,97.48
2022-11-24T19:45:50.912Z,97.67
2022-11-24T19:50:59.147Z,97.34
2022-11-24T19:56:28.513Z,97.26
2022-11-24T20:01:39.224Z,97.38
2022-11-24T20:06:43.706Z,97.42
2022-11-24T20:11:45.825Z,97.45
2022-11-24T20:16:48.035Z,97.44
2022-11-24T20:21:50.168Z,97.45
2022-11-24T20:26:56.593Z,97.47
2022-11-24T20:31:58.195Z,97.55
2022-11-24T20:36:59.884Z,97.52
2022-11-24T20:42:01.299Z,97.63
2022-11-24T20:47:04.952Z,97.69
2022-11-24T20:52:06.415Z,97.55
2022-11-24T20:57:07.832Z,97.52
2022-11-24T21:02:10.293Z,97.62
2022-11-24T21:07:13.498Z,97.58
2022-11-24T21:12:14.984Z,97.76
2022-11-24T21:17:16.489Z,97.60
2022-11-24T21:22:17.968Z,97.63
2022-11-24T21:27:19.551Z,97.81
2022-11-24T21:32:21.007Z,97.95
2022-11-24T21:37:22.528Z,97.96
2022-11-24T21:42:24.008Z,97.79
2022-11-24T21:47:25.477Z,98.09
2022-11-24T21:52:26.907Z,98.06
2022-11-24T21:57:28.366Z,98.00
2022-11-24T22:02:29.850Z,98.06
2022-11-24T22:07:32.369Z,98.08
2022-11-24T22:12:33.880Z,98.00
2022-11-24T22:17:35.368Z,98.08
2022-11-24T22:22:36.815Z,97.99
2022-11-24T22:27:38.292Z,97.92
2022-11-24T22:32:39.747Z,98.04
2022-11-24T22:37:41.240Z,98.09
2022-11-24T22:42:42.655Z,97.90
2022-11-24T22:47:44.102Z,97.94
2022-11-24T22:52:45.520Z,97.95
2022-11-24T22:57:48.450Z,97.82
2022-11-24T23:02:50.264Z,98.11
2022-11-24T23:07:51.787Z,97.91
2022-11-24T23:12:55.129Z,98.06
2022-11-24T23:17:56.552Z,97.74
2022-11-24T23:22:59.909Z,97.61
2022-11-24T23:28:01.886Z,97.66
2022-11-24T23:33:03.409Z,97.69
2022-11-24T23:38:07.798Z,97.71
2022-11-24T23:43:09.588Z,97.46
2022-11-24T23:48:11.009Z,97.94
2022-11-24T23:53:12.839Z,97.57
2022-11-24T23:58:14.297Z,97.43
